sensor_id;sensor_type;location;lat;lon;timestamp;temperature;humidity
37408;DHT22;24866;50.248;8.252;2023-05-10T00:00:42;12.90;99.90
37408;DHT22;24866;50.248;8.252;2023-05-10T00:03:12;13.00;99.90
37408;DHT22;24866;50.248;8.252;2023-05-10T00:05:42;12.90;99.90
37408;DHT22;24866;50.248;8.252;2023-05-10T00:08:12;12.80;99.90
37408;DHT22;24866;50.248;8.252;2023-05-10T00:10:44;12.70;99.90
37408;DHT22;24866;50.248;8.252;2023-05-10T00:13:14;12.70;99.90
37408;DHT22;24866;50.248;8.252;2023-05-10T00:15:44;12.70;99.90
37408;DHT22;24866;50.248;8.252;2023-05-10T00:18:14;12.70;99.90
37408;DHT22;24866;50.248;8.252;2023-05-10T00:20:43;12.80;99.90
37408;DHT22;24866;50.248;8.252;2023-05-10T00:23:14;12.80;99.90
37408;DHT22;24866;50.248;8.252;2023-05-10T00:25:45;12.70;99.90
37408;DHT22;24866;50.248;8.252;2023-05-10T00:28:15;12.60;99.90
37408;DHT22;24866;50.248;8.252;2023-05-10T00:30:45;12.60;99.90
37408;DHT22;24866;50.248;8.252;2023-05-10T00:33:15;12.60;99.90
37408;DHT22;24866;50.248;8.252;2023-05-10T00:35:45;12.60;99.90
37408;DHT22;24866;50.248;8.252;2023-05-10T00:38:15;12.60;99.90
37408;DHT22;24866;50.248;8.252;2023-05-10T00:40:46;12.50;99.90
37408;DHT22;24866;50.248;8.252;2023-05-10T00:43:16;12.70;99.90
37408;DHT22;24866;50.248;8.252;2023-05-10T00:45:46;12.70;99.90
37408;DHT22;24866;50.248;8.252;2023-05-10T00:48:16;12.60;99.90
37408;DHT22;24866;50.248;8.252;2023-05-10T00:50:46;12.70;99.90
37408;DHT22;24866;50.248;8.252;2023-05-10T00:53:16;12.70;99.90
37408;DHT22;24866;50.248;8.252;2023-05-10T00:55:48;12.70;99.90
37408;DHT22;24866;50.248;8.252;2023-05-10T00:58:18;12.70;99.90
37408;DHT22;24866;50.248;8.252;2023-05-10T01:00:48;12.80;99.90
37408;DHT22;24866;50.248;8.252;2023-05-10T01:03:19;12.70;99.90
37408;DHT22;24866;50.248;8.252;2023-05-10T01:05:49;12.60;99.90
37408;DHT22;24866;50.248;8.252;2023-05-10T01:08:19;12.50;99.90
37408;DHT22;24866;50.248;8.252;2023-05-10T01:10:50;12.40;99.90
37408;DHT22;24866;50.248;8.252;2023-05-10T01:13:30;12.40;99.90
37408;DHT22;24866;50.248;8.252;2023-05-10T01:16:01;12.40;99.90
37408;DHT22;24866;50.248;8.252;2023-05-10T01:18:33;12.40;99.90
37408;DHT22;24866;50.248;8.252;2023-05-10T01:21:27;12.40;99.90
37408;DHT22;24866;50.248;8.252;2023-05-10T01:24:18;12.30;99.90
37408;DHT22;24866;50.248;8.252;2023-05-10T01:27:25;12.40;99.90
37408;DHT22;24866;50.248;8.252;2023-05-10T01:30:30;12.40;99.90
37408;DHT22;24866;50.248;8.252;2023-05-10T01:33:10;12.20;99.90
37408;DHT22;24866;50.248;8.252;2023-05-10T01:35:45;12.30;99.90
37408;DHT22;24866;50.248;8.252;2023-05-10T01:38:22;12.20;99.90
37408;DHT22;24866;50.248;8.252;2023-05-10T01:41:00;12.20;99.90
37408;DHT22;24866;50.248;8.252;2023-05-10T01:43:42;12.20;99.90
37408;DHT22;24866;50.248;8.252;2023-05-10T01:46:17;12.20;99.90
37408;DHT22;24866;50.248;8.252;2023-05-10T01:48:55;12.20;99.90
37408;DHT22;24866;50.248;8.252;2023-05-10T01:51:33;12.20;99.90
37408;DHT22;24866;50.248;8.252;2023-05-10T01:54:06;12.20;99.90
37408;DHT22;24866;50.248;8.252;2023-05-10T01:56:37;12.20;99.90
37408;DHT22;24866;50.248;8.252;2023-05-10T01:59:15;12.20;99.90
37408;DHT22;24866;50.248;8.252;2023-05-10T02:01:47;12.10;99.90
37408;DHT22;24866;50.248;8.252;2023-05-10T02:04:20;12.10;99.90
37408;DHT22;24866;50.248;8.252;2023-05-10T02:06:53;12.00;99.90
37408;DHT22;24866;50.248;8.252;2023-05-10T02:09:25;12.10;99.90
37408;DHT22;24866;50.248;8.252;2023-05-10T02:11:58;12.10;99.90
37408;DHT22;24866;50.248;8.252;2023-05-10T02:14:31;12.10;99.90
37408;DHT22;24866;50.248;8.252;2023-05-10T02:17:02;12.10;99.90
37408;DHT22;24866;50.248;8.252;2023-05-10T02:19:37;12.00;99.90
37408;DHT22;24866;50.248;8.252;2023-05-10T02:22:08;12.00;99.90
37408;DHT22;24866;50.248;8.252;2023-05-10T02:24:41;12.00;99.90
37408;DHT22;24866;50.248;8.252;2023-05-10T02:27:12;12.00;99.90
37408;DHT22;24866;50.248;8.252;2023-05-10T02:29:44;12.00;99.90
37408;DHT22;24866;50.248;8.252;2023-05-10T02:32:15;11.90;99.90
37408;DHT22;24866;50.248;8.252;2023-05-10T02:34:47;11.90;99.90
37408;DHT22;24866;50.248;8.252;2023-05-10T02:37:21;12.00;99.90
37408;DHT22;24866;50.248;8.252;2023-05-10T02:39:54;12.10;99.90
37408;DHT22;24866;50.248;8.252;2023-05-10T02:42:26;12.10;99.90
37408;DHT22;24866;50.248;8.252;2023-05-10T02:45:00;12.00;99.90
37408;DHT22;24866;50.248;8.252;2023-05-10T02:47:31;12.00;99.90
37408;DHT22;24866;50.248;8.252;2023-05-10T02:50:03;12.10;99.90
37408;DHT22;24866;50.248;8.252;2023-05-10T02:52:39;12.10;99.90
37408;DHT22;24866;50.248;8.252;2023-05-10T02:55:12;12.20;99.90
37408;DHT22;24866;50.248;8.252;2023-05-10T02:57:48;12.20;99.90
37408;DHT22;24866;50.248;8.252;2023-05-10T03:00:18;12.30;99.90
37408;DHT22;24866;50.248;8.252;2023-05-10T03:02:51;12.30;99.90
37408;DHT22;24866;50.248;8.252;2023-05-10T03:05:22;12.30;99.90
37408;DHT22;24866;50.248;8.252;2023-05-10T03:07:53;12.20;99.90
37408;DHT22;24866;50.248;8.252;2023-05-10T03:10:27;12.20;99.90
37408;DHT22;24866;50.248;8.252;2023-05-10T03:13:07;12.20;99.90
37408;DHT22;24866;50.248;8.252;2023-05-10T03:15:47;12.20;99.90
37408;DHT22;24866;50.248;8.252;2023-05-10T03:18:22;12.20;99.90
37408;DHT22;24866;50.248;8.252;2023-05-10T03:20:59;12.20;99.90
37408;DHT22;24866;50.248;8.252;2023-05-10T03:23:35;12.10;99.90
37408;DHT22;24866;50.248;8.252;2023-05-10T03:26:06;12.10;99.90
37408;DHT22;24866;50.248;8.252;2023-05-10T03:28:37;12.00;99.90
37408;DHT22;24866;50.248;8.252;2023-05-10T03:31:07;12.00;99.90
37408;DHT22;24866;50.248;8.252;2023-05-10T03:33:46;11.90;99.90
37408;DHT22;24866;50.248;8.252;2023-05-10T03:36:19;11.90;99.90
37408;DHT22;24866;50.248;8.252;2023-05-10T03:38:49;11.90;99.90
37408;DHT22;24866;50.248;8.252;2023-05-10T03:41:19;11.90;99.90
37408;DHT22;24866;50.248;8.252;2023-05-10T03:43:49;11.90;99.90
37408;DHT22;24866;50.248;8.252;2023-05-10T03:46:19;12.00;99.90
37408;DHT22;24866;50.248;8.252;2023-05-10T03:48:49;12.00;99.90
37408;DHT22;24866;50.248;8.252;2023-05-10T03:51:20;12.00;99.90
37408;DHT22;24866;50.248;8.252;2023-05-10T03:53:50;12.00;99.90
37408;DHT22;24866;50.248;8.252;2023-05-10T03:56:20;12.10;99.90
37408;DHT22;24866;50.248;8.252;2023-05-10T03:58:50;12.00;99.90
37408;DHT22;24866;50.248;8.252;2023-05-10T04:01:20;12.00;99.90
37408;DHT22;24866;50.248;8.252;2023-05-10T04:03:50;12.00;99.90
37408;DHT22;24866;50.248;8.252;2023-05-10T04:06:21;12.00;99.90
37408;DHT22;24866;50.248;8.252;2023-05-10T04:08:51;12.00;99.90
37408;DHT22;24866;50.248;8.252;2023-05-10T04:11:22;12.00;99.90
37408;DHT22;24866;50.248;8.252;2023-05-10T04:13:53;12.00;99.90
37408;DHT22;24866;50.248;8.252;2023-05-10T04:16:23;12.00;99.90
37408;DHT22;24866;50.248;8.252;2023-05-10T04:18:53;12.00;99.90
37408;DHT22;24866;50.248;8.252;2023-05-10T04:21:24;12.00;99.90
37408;DHT22;24866;50.248;8.252;2023-05-10T04:23:54;12.00;99.90
37408;DHT22;24866;50.248;8.252;2023-05-10T04:26:24;12.00;99.90
37408;DHT22;24866;50.248;8.252;2023-05-10T04:28:56;12.00;99.90
37408;DHT22;24866;50.248;8.252;2023-05-10T04:31:26;12.10;99.90
37408;DHT22;24866;50.248;8.252;2023-05-10T04:33:56;12.10;99.90
37408;DHT22;24866;50.248;8.252;2023-05-10T04:36:27;12.10;99.90
37408;DHT22;24866;50.248;8.252;2023-05-10T04:38:57;12.10;99.90
37408;DHT22;24866;50.248;8.252;2023-05-10T04:41:27;12.10;99.90
37408;DHT22;24866;50.248;8.252;2023-05-10T04:43:57;12.10;99.90
37408;DHT22;24866;50.248;8.252;2023-05-10T04:46:27;12.10;99.90
37408;DHT22;24866;50.248;8.252;2023-05-10T04:48:57;12.10;99.90
37408;DHT22;24866;50.248;8.252;2023-05-10T04:51:29;12.20;99.90
37408;DHT22;24866;50.248;8.252;2023-05-10T04:54:00;12.20;99.90
37408;DHT22;24866;50.248;8.252;2023-05-10T04:56:30;12.20;99.90
37408;DHT22;24866;50.248;8.252;2023-05-10T04:59:00;12.20;99.90
37408;DHT22;24866;50.248;8.252;2023-05-10T05:01:30;12.20;99.90
37408;DHT22;24866;50.248;8.252;2023-05-10T05:04:00;12.20;99.90
37408;DHT22;24866;50.248;8.252;2023-05-10T05:06:31;12.30;99.90
37408;DHT22;24866;50.248;8.252;2023-05-10T05:09:01;12.20;99.90
37408;DHT22;24866;50.248;8.252;2023-05-10T05:11:31;12.30;99.90
37408;DHT22;24866;50.248;8.252;2023-05-10T05:14:01;12.30;99.90
37408;DHT22;24866;50.248;8.252;2023-05-10T05:16:31;12.30;99.90
37408;DHT22;24866;50.248;8.252;2023-05-10T05:19:01;12.30;99.90
37408;DHT22;24866;50.248;8.252;2023-05-10T05:21:33;12.30;99.90
37408;DHT22;24866;50.248;8.252;2023-05-10T05:24:03;12.30;99.90
37408;DHT22;24866;50.248;8.252;2023-05-10T05:26:34;12.30;99.90
37408;DHT22;24866;50.248;8.252;2023-05-10T05:29:03;12.30;99.90
37408;DHT22;24866;50.248;8.252;2023-05-10T05:31:33;12.30;99.90
37408;DHT22;24866;50.248;8.252;2023-05-10T05:34:03;12.30;99.90
37408;DHT22;24866;50.248;8.252;2023-05-10T05:36:37;12.30;99.90
37408;DHT22;24866;50.248;8.252;2023-05-10T05:39:07;12.30;99.90
37408;DHT22;24866;50.248;8.252;2023-05-10T05:41:37;12.30;99.90
37408;DHT22;24866;50.248;8.252;2023-05-10T05:44:07;12.30;99.90
37408;DHT22;24866;50.248;8.252;2023-05-10T05:46:38;12.30;99.90
37408;DHT22;24866;50.248;8.252;2023-05-10T05:49:08;12.50;99.90
37408;DHT22;24866;50.248;8.252;2023-05-10T05:51:39;12.50;99.90
37408;DHT22;24866;50.248;8.252;2023-05-10T05:54:10;12.50;99.90
37408;DHT22;24866;50.248;8.252;2023-05-10T05:56:40;12.60;99.90
37408;DHT22;24866;50.248;8.252;2023-05-10T05:59:10;12.70;99.90
37408;DHT22;24866;50.248;8.252;2023-05-10T06:01:41;12.60;99.90
37408;DHT22;24866;50.248;8.252;2023-05-10T06:04:11;12.60;99.90
37408;DHT22;24866;50.248;8.252;2023-05-10T06:06:42;12.60;99.90
37408;DHT22;24866;50.248;8.252;2023-05-10T06:09:12;12.60;99.90
37408;DHT22;24866;50.248;8.252;2023-05-10T06:11:42;12.70;99.90
37408;DHT22;24866;50.248;8.252;2023-05-10T06:14:12;12.70;99.90
37408;DHT22;24866;50.248;8.252;2023-05-10T06:16:42;12.80;99.90
37408;DHT22;24866;50.248;8.252;2023-05-10T06:19:13;13.00;99.90
37408;DHT22;24866;50.248;8.252;2023-05-10T06:21:44;13.00;99.90
37408;DHT22;24866;50.248;8.252;2023-05-10T06:24:14;12.80;99.90
37408;DHT22;24866;50.248;8.252;2023-05-10T06:26:44;12.80;99.90
37408;DHT22;24866;50.248;8.252;2023-05-10T06:29:14;12.80;99.90
37408;DHT22;24866;50.248;8.252;2023-05-10T06:31:44;12.90;99.90
37408;DHT22;24866;50.248;8.252;2023-05-10T06:34:14;12.90;99.90
37408;DHT22;24866;50.248;8.252;2023-05-10T06:36:46;12.90;99.90
37408;DHT22;24866;50.248;8.252;2023-05-10T06:39:16;12.90;99.90
37408;DHT22;24866;50.248;8.252;2023-05-10T06:41:46;13.10;99.90
37408;DHT22;24866;50.248;8.252;2023-05-10T06:44:16;13.20;99.90
37408;DHT22;24866;50.248;8.252;2023-05-10T06:46:46;13.20;99.90
37408;DHT22;24866;50.248;8.252;2023-05-10T06:49:16;13.40;99.90
37408;DHT22;24866;50.248;8.252;2023-05-10T06:51:47;13.30;99.90
37408;DHT22;24866;50.248;8.252;2023-05-10T06:54:19;13.40;99.90
37408;DHT22;24866;50.248;8.252;2023-05-10T06:56:49;13.30;99.90
37408;DHT22;24866;50.248;8.252;2023-05-10T06:59:19;13.40;99.90
37408;DHT22;24866;50.248;8.252;2023-05-10T07:01:50;13.40;99.90
37408;DHT22;24866;50.248;8.252;2023-05-10T07:04:22;13.40;99.90
37408;DHT22;24866;50.248;8.252;2023-05-10T07:06:53;13.30;99.90
37408;DHT22;24866;50.248;8.252;2023-05-10T07:09:23;13.40;99.90
37408;DHT22;24866;50.248;8.252;2023-05-10T07:11:53;13.20;99.90
37408;DHT22;24866;50.248;8.252;2023-05-10T07:14:23;13.20;99.90
37408;DHT22;24866;50.248;8.252;2023-05-10T07:16:53;13.30;99.90
37408;DHT22;24866;50.248;8.252;2023-05-10T07:19:23;13.40;99.90
37408;DHT22;24866;50.248;8.252;2023-05-10T07:21:55;13.30;99.90
37408;DHT22;24866;50.248;8.252;2023-05-10T07:24:26;13.40;99.90
37408;DHT22;24866;50.248;8.252;2023-05-10T07:26:55;13.50;99.90
37408;DHT22;24866;50.248;8.252;2023-05-10T07:29:25;13.60;99.90
37408;DHT22;24866;50.248;8.252;2023-05-10T07:31:55;13.60;99.90
37408;DHT22;24866;50.248;8.252;2023-05-10T07:34:25;13.60;99.90
37408;DHT22;24866;50.248;8.252;2023-05-10T07:36:58;13.60;99.90
37408;DHT22;24866;50.248;8.252;2023-05-10T07:39:28;13.70;99.90
37408;DHT22;24866;50.248;8.252;2023-05-10T07:41:58;13.60;99.90
37408;DHT22;24866;50.248;8.252;2023-05-10T07:44:30;13.50;99.90
37408;DHT22;24866;50.248;8.252;2023-05-10T07:47:00;13.60;99.90
37408;DHT22;24866;50.248;8.252;2023-05-10T07:49:29;13.50;99.90
37408;DHT22;24866;50.248;8.252;2023-05-10T07:52:02;13.50;99.90
37408;DHT22;24866;50.248;8.252;2023-05-10T07:54:43;13.40;99.90
37408;DHT22;24866;50.248;8.252;2023-05-10T07:57:13;13.40;99.90
37408;DHT22;24866;50.248;8.252;2023-05-10T07:59:45;13.40;99.90
37408;DHT22;24866;50.248;8.252;2023-05-10T08:02:16;13.30;99.90
37408;DHT22;24866;50.248;8.252;2023-05-10T08:04:45;13.30;99.90
37408;DHT22;24866;50.248;8.252;2023-05-10T08:07:19;13.30;99.90
37408;DHT22;24866;50.248;8.252;2023-05-10T08:09:49;13.30;99.90
37408;DHT22;24866;50.248;8.252;2023-05-10T08:12:19;13.30;99.90
37408;DHT22;24866;50.248;8.252;2023-05-10T08:14:50;13.30;99.90
37408;DHT22;24866;50.248;8.252;2023-05-10T08:17:20;13.40;99.90
37408;DHT22;24866;50.248;8.252;2023-05-10T08:19:50;13.50;99.90
37408;DHT22;24866;50.248;8.252;2023-05-10T08:22:21;13.40;99.90
37408;DHT22;24866;50.248;8.252;2023-05-10T08:24:51;13.40;99.90
37408;DHT22;24866;50.248;8.252;2023-05-10T08:27:21;13.40;99.90
37408;DHT22;24866;50.248;8.252;2023-05-10T08:29:51;13.40;99.90
37408;DHT22;24866;50.248;8.252;2023-05-10T08:32:21;13.40;99.90
37408;DHT22;24866;50.248;8.252;2023-05-10T08:34:51;13.40;99.90
37408;DHT22;24866;50.248;8.252;2023-05-10T08:37:23;13.30;99.90
37408;DHT22;24866;50.248;8.252;2023-05-10T08:39:53;13.30;99.90
37408;DHT22;24866;50.248;8.252;2023-05-10T08:42:25;13.30;99.90
37408;DHT22;24866;50.248;8.252;2023-05-10T08:44:57;13.40;99.90
37408;DHT22;24866;50.248;8.252;2023-05-10T08:47:29;13.50;99.90
37408;DHT22;24866;50.248;8.252;2023-05-10T08:50:00;13.50;99.90
37408;DHT22;24866;50.248;8.252;2023-05-10T08:52:37;13.60;99.90
37408;DHT22;24866;50.248;8.252;2023-05-10T08:55:11;13.60;99.90
37408;DHT22;24866;50.248;8.252;2023-05-10T08:57:41;13.70;99.90
37408;DHT22;24866;50.248;8.252;2023-05-10T09:00:12;13.60;99.90
37408;DHT22;24866;50.248;8.252;2023-05-10T09:02:45;13.60;99.90
37408;DHT22;24866;50.248;8.252;2023-05-10T09:05:18;13.80;99.90
37408;DHT22;24866;50.248;8.252;2023-05-10T09:07:52;13.80;99.90
37408;DHT22;24866;50.248;8.252;2023-05-10T09:10:23;14.00;99.90
37408;DHT22;24866;50.248;8.252;2023-05-10T09:12:56;14.20;99.90
37408;DHT22;24866;50.248;8.252;2023-05-10T09:15:26;14.40;99.90
37408;DHT22;24866;50.248;8.252;2023-05-10T09:17:56;14.20;99.90
37408;DHT22;24866;50.248;8.252;2023-05-10T09:20:28;14.30;99.90
37408;DHT22;24866;50.248;8.252;2023-05-10T09:22:59;14.10;99.90
37408;DHT22;24866;50.248;8.252;2023-05-10T09:25:29;14.20;99.90
37408;DHT22;24866;50.248;8.252;2023-05-10T09:28:02;14.20;99.90
37408;DHT22;24866;50.248;8.252;2023-05-10T09:30:35;14.30;99.90
37408;DHT22;24866;50.248;8.252;2023-05-10T09:33:05;14.40;99.90
37408;DHT22;24866;50.248;8.252;2023-05-10T09:35:36;14.60;99.90
37408;DHT22;24866;50.248;8.252;2023-05-10T09:38:10;14.80;99.90
37408;DHT22;24866;50.248;8.252;2023-05-10T09:40:40;14.90;99.90
37408;DHT22;24866;50.248;8.252;2023-05-10T09:43:09;14.80;99.90
37408;DHT22;24866;50.248;8.252;2023-05-10T09:45:41;14.80;99.90
37408;DHT22;24866;50.248;8.252;2023-05-10T09:48:11;14.70;99.90
37408;DHT22;24866;50.248;8.252;2023-05-10T09:50:41;14.70;99.90
37408;DHT22;24866;50.248;8.252;2023-05-10T09:53:14;14.70;99.90
37408;DHT22;24866;50.248;8.252;2023-05-10T09:55:46;14.70;99.90
37408;DHT22;24866;50.248;8.252;2023-05-10T09:58:17;15.00;99.90
37408;DHT22;24866;50.248;8.252;2023-05-10T10:00:48;14.90;99.90
37408;DHT22;24866;50.248;8.252;2023-05-10T10:03:21;15.00;99.90
37408;DHT22;24866;50.248;8.252;2023-05-10T10:05:52;14.80;99.90
37408;DHT22;24866;50.248;8.252;2023-05-10T10:08:25;14.60;99.90
37408;DHT22;24866;50.248;8.252;2023-05-10T10:10:56;14.50;99.90
37408;DHT22;24866;50.248;8.252;2023-05-10T10:13:26;14.60;99.90
37408;DHT22;24866;50.248;8.252;2023-05-10T10:15:56;14.50;99.90
37408;DHT22;24866;50.248;8.252;2023-05-10T10:18:26;14.40;99.90
37408;DHT22;24866;50.248;8.252;2023-05-10T10:20:57;14.40;99.90
37408;DHT22;24866;50.248;8.252;2023-05-10T10:23:29;14.40;99.90
37408;DHT22;24866;50.248;8.252;2023-05-10T10:25:59;14.30;99.90
37408;DHT22;24866;50.248;8.252;2023-05-10T10:28:35;14.50;99.90
37408;DHT22;24866;50.248;8.252;2023-05-10T10:31:15;14.70;99.90
37408;DHT22;24866;50.248;8.252;2023-05-10T10:33:56;14.80;99.90
37408;DHT22;24866;50.248;8.252;2023-05-10T10:36:29;14.90;99.90
37408;DHT22;24866;50.248;8.252;2023-05-10T10:39:01;15.00;99.90
37408;DHT22;24866;50.248;8.252;2023-05-10T10:41:33;15.10;99.90
37408;DHT22;24866;50.248;8.252;2023-05-10T10:44:38;15.30;99.90
37408;DHT22;24866;50.248;8.252;2023-05-10T10:47:22;15.20;99.90
37408;DHT22;24866;50.248;8.252;2023-05-10T10:50:04;15.00;99.90
37408;DHT22;24866;50.248;8.252;2023-05-10T10:52:42;15.00;99.90
37408;DHT22;24866;50.248;8.252;2023-05-10T10:55:14;14.90;99.90
37408;DHT22;24866;50.248;8.252;2023-05-10T10:57:48;14.80;99.90
37408;DHT22;24866;50.248;8.252;2023-05-10T11:00:28;14.90;99.90
37408;DHT22;24866;50.248;8.252;2023-05-10T11:03:03;14.90;99.90
37408;DHT22;24866;50.248;8.252;2023-05-10T11:05:39;15.00;99.90
37408;DHT22;24866;50.248;8.252;2023-05-10T11:08:15;14.90;99.90
37408;DHT22;24866;50.248;8.252;2023-05-10T11:11:02;14.90;99.90
37408;DHT22;24866;50.248;8.252;2023-05-10T11:13:34;15.00;99.90
37408;DHT22;24866;50.248;8.252;2023-05-10T11:16:16;15.00;99.90
37408;DHT22;24866;50.248;8.252;2023-05-10T11:18:57;15.10;99.90
37408;DHT22;24866;50.248;8.252;2023-05-10T11:21:28;15.00;99.90
37408;DHT22;24866;50.248;8.252;2023-05-10T11:23:59;15.00;99.90
37408;DHT22;24866;50.248;8.252;2023-05-10T11:26:35;15.00;99.90
37408;DHT22;24866;50.248;8.252;2023-05-10T11:29:08;15.30;99.90
37408;DHT22;24866;50.248;8.252;2023-05-10T11:31:42;15.30;99.90
37408;DHT22;24866;50.248;8.252;2023-05-10T11:34:23;15.40;99.90
37408;DHT22;24866;50.248;8.252;2023-05-10T11:36:55;15.40;99.90
37408;DHT22;24866;50.248;8.252;2023-05-10T11:39:26;15.40;99.90
37408;DHT22;24866;50.248;8.252;2023-05-10T11:41:58;15.20;99.90
37408;DHT22;24866;50.248;8.252;2023-05-10T11:44:29;15.40;99.90
37408;DHT22;24866;50.248;8.252;2023-05-10T11:47:00;15.70;99.90
37408;DHT22;24866;50.248;8.252;2023-05-10T11:49:30;15.50;99.90
37408;DHT22;24866;50.248;8.252;2023-05-10T11:52:09;15.50;99.90
37408;DHT22;24866;50.248;8.252;2023-05-10T11:54:45;15.30;99.90
37408;DHT22;24866;50.248;8.252;2023-05-10T11:57:18;15.50;99.90
37408;DHT22;24866;50.248;8.252;2023-05-10T11:59:49;15.60;99.90
37408;DHT22;24866;50.248;8.252;2023-05-10T12:02:22;15.90;99.90
37408;DHT22;24866;50.248;8.252;2023-05-10T12:04:56;15.90;99.90
37408;DHT22;24866;50.248;8.252;2023-05-10T12:07:27;16.20;99.90
37408;DHT22;24866;50.248;8.252;2023-05-10T12:10:05;16.10;99.90
37408;DHT22;24866;50.248;8.252;2023-05-10T12:12:42;15.80;99.90
37408;DHT22;24866;50.248;8.252;2023-05-10T12:15:17;15.80;99.90
37408;DHT22;24866;50.248;8.252;2023-05-10T12:17:48;15.80;99.90
37408;DHT22;24866;50.248;8.252;2023-05-10T12:20:19;16.00;99.90
37408;DHT22;24866;50.248;8.252;2023-05-10T12:22:51;16.00;99.90
37408;DHT22;24866;50.248;8.252;2023-05-10T12:25:23;16.40;99.90
37408;DHT22;24866;50.248;8.252;2023-05-10T12:27:56;16.30;99.90
37408;DHT22;24866;50.248;8.252;2023-05-10T12:30:28;16.40;99.90
37408;DHT22;24866;50.248;8.252;2023-05-10T12:33:02;16.20;99.90
37408;DHT22;24866;50.248;8.252;2023-05-10T12:35:33;16.50;99.90
37408;DHT22;24866;50.248;8.252;2023-05-10T12:38:28;16.90;99.90
37408;DHT22;24866;50.248;8.252;2023-05-10T12:41:00;16.50;99.90
37408;DHT22;24866;50.248;8.252;2023-05-10T12:43:32;16.50;99.90
37408;DHT22;24866;50.248;8.252;2023-05-10T12:46:06;17.10;99.90
37408;DHT22;24866;50.248;8.252;2023-05-10T12:48:37;16.80;99.90
37408;DHT22;24866;50.248;8.252;2023-05-10T12:51:08;16.70;99.90
37408;DHT22;24866;50.248;8.252;2023-05-10T12:53:40;17.00;99.90
37408;DHT22;24866;50.248;8.252;2023-05-10T12:56:10;16.80;99.90
37408;DHT22;24866;50.248;8.252;2023-05-10T12:58:41;16.60;99.90
37408;DHT22;24866;50.248;8.252;2023-05-10T13:01:16;16.50;99.90
37408;DHT22;24866;50.248;8.252;2023-05-10T13:03:46;16.40;99.90
37408;DHT22;24866;50.248;8.252;2023-05-10T13:06:16;16.50;99.90
37408;DHT22;24866;50.248;8.252;2023-05-10T13:08:46;16.50;99.90
37408;DHT22;24866;50.248;8.252;2023-05-10T13:11:16;16.10;99.90
37408;DHT22;24866;50.248;8.252;2023-05-10T13:13:49;15.60;99.90
37408;DHT22;24866;50.248;8.252;2023-05-10T13:16:19;15.30;99.90
37408;DHT22;24866;50.248;8.252;2023-05-10T13:18:49;15.10;99.90
37408;DHT22;24866;50.248;8.252;2023-05-10T13:21:19;14.90;99.90
37408;DHT22;24866;50.248;8.252;2023-05-10T13:23:49;14.80;99.90
37408;DHT22;24866;50.248;8.252;2023-05-10T13:26:19;14.60;99.90
37408;DHT22;24866;50.248;8.252;2023-05-10T13:28:51;14.60;99.90
37408;DHT22;24866;50.248;8.252;2023-05-10T13:31:21;14.60;99.90
37408;DHT22;24866;50.248;8.252;2023-05-10T13:33:51;14.50;99.90
37408;DHT22;24866;50.248;8.252;2023-05-10T13:36:21;14.40;99.90
37408;DHT22;24866;50.248;8.252;2023-05-10T13:38:51;14.30;99.90
37408;DHT22;24866;50.248;8.252;2023-05-10T13:41:21;14.40;99.90
37408;DHT22;24866;50.248;8.252;2023-05-10T13:43:52;14.60;99.90
37408;DHT22;24866;50.248;8.252;2023-05-10T13:46:22;14.70;99.90
37408;DHT22;24866;50.248;8.252;2023-05-10T13:48:52;14.80;99.90
37408;DHT22;24866;50.248;8.252;2023-05-10T13:51:22;14.90;99.90
37408;DHT22;24866;50.248;8.252;2023-05-10T13:53:52;14.70;99.90
37408;DHT22;24866;50.248;8.252;2023-05-10T13:56:22;14.90;99.90
37408;DHT22;24866;50.248;8.252;2023-05-10T13:58:56;15.20;99.90
37408;DHT22;24866;50.248;8.252;2023-05-10T14:01:26;14.90;99.90
37408;DHT22;24866;50.248;8.252;2023-05-10T14:03:56;15.20;99.90
37408;DHT22;24866;50.248;8.252;2023-05-10T14:06:26;15.40;99.90
37408;DHT22;24866;50.248;8.252;2023-05-10T14:08:56;15.60;99.90
37408;DHT22;24866;50.248;8.252;2023-05-10T14:11:26;15.80;99.90
37408;DHT22;24866;50.248;8.252;2023-05-10T14:13:57;15.70;99.90
37408;DHT22;24866;50.248;8.252;2023-05-10T14:16:27;15.70;99.90
37408;DHT22;24866;50.248;8.252;2023-05-10T14:18:57;15.60;99.90
37408;DHT22;24866;50.248;8.252;2023-05-10T14:21:27;15.60;99.90
37408;DHT22;24866;50.248;8.252;2023-05-10T14:24:00;15.50;99.90
37408;DHT22;24866;50.248;8.252;2023-05-10T14:26:30;15.40;99.90
37408;DHT22;24866;50.248;8.252;2023-05-10T14:29:01;15.20;99.90
37408;DHT22;24866;50.248;8.252;2023-05-10T14:31:31;15.20;99.90
37408;DHT22;24866;50.248;8.252;2023-05-10T14:34:01;15.30;99.90
37408;DHT22;24866;50.248;8.252;2023-05-10T14:36:31;15.30;99.90
37408;DHT22;24866;50.248;8.252;2023-05-10T14:39:01;15.60;99.90
37408;DHT22;24866;50.248;8.252;2023-05-10T14:41:32;15.80;99.90
37408;DHT22;24866;50.248;8.252;2023-05-10T14:44:03;15.80;99.90
37408;DHT22;24866;50.248;8.252;2023-05-10T14:46:33;15.80;99.90
37408;DHT22;24866;50.248;8.252;2023-05-10T14:49:04;15.80;99.90
37408;DHT22;24866;50.248;8.252;2023-05-10T14:51:34;16.00;99.90
37408;DHT22;24866;50.248;8.252;2023-05-10T14:54:05;15.90;99.90
37408;DHT22;24866;50.248;8.252;2023-05-10T14:56:35;15.90;99.90
37408;DHT22;24866;50.248;8.252;2023-05-10T14:59:07;16.20;99.90
37408;DHT22;24866;50.248;8.252;2023-05-10T15:01:39;16.30;99.90
37408;DHT22;24866;50.248;8.252;2023-05-10T15:04:10;16.40;99.90
37408;DHT22;24866;50.248;8.252;2023-05-10T15:06:41;16.30;99.90
37408;DHT22;24866;50.248;8.252;2023-05-10T15:09:11;16.10;99.90
37408;DHT22;24866;50.248;8.252;2023-05-10T15:11:41;16.30;99.90
37408;DHT22;24866;50.248;8.252;2023-05-10T15:14:13;16.40;99.90
37408;DHT22;24866;50.248;8.252;2023-05-10T15:16:43;16.20;99.90
37408;DHT22;24866;50.248;8.252;2023-05-10T15:19:12;16.10;99.90
37408;DHT22;24866;50.248;8.252;2023-05-10T15:21:42;16.30;99.90
37408;DHT22;24866;50.248;8.252;2023-05-10T15:24:13;16.40;99.90
37408;DHT22;24866;50.248;8.252;2023-05-10T15:26:45;16.30;99.90
37408;DHT22;24866;50.248;8.252;2023-05-10T15:29:16;16.30;99.90
37408;DHT22;24866;50.248;8.252;2023-05-10T15:31:49;16.50;99.90
37408;DHT22;24866;50.248;8.252;2023-05-10T15:34:19;16.50;99.90
37408;DHT22;24866;50.248;8.252;2023-05-10T15:36:49;16.80;99.90
37408;DHT22;24866;50.248;8.252;2023-05-10T15:39:19;16.90;99.90
37408;DHT22;24866;50.248;8.252;2023-05-10T15:41:49;17.00;99.90
37408;DHT22;24866;50.248;8.252;2023-05-10T15:44:20;17.30;99.90
37408;DHT22;24866;50.248;8.252;2023-05-10T15:46:50;17.10;99.90
37408;DHT22;24866;50.248;8.252;2023-05-10T15:49:20;17.40;99.90
37408;DHT22;24866;50.248;8.252;2023-05-10T15:51:51;17.70;99.90
37408;DHT22;24866;50.248;8.252;2023-05-10T15:54:21;17.70;99.90
37408;DHT22;24866;50.248;8.252;2023-05-10T15:56:51;17.70;99.90
37408;DHT22;24866;50.248;8.252;2023-05-10T15:59:23;17.50;99.90